Time;durP1;ratioP1;P1;durP2;ratioP2;P2;SDS_P1;SDS_P2;PMS_P1;PMS_P2;Temp;Humidity;BMP_temperature;BMP_pressure;BME280_temperature;BME280_humidity;BME280_pressure;Samples;Min_cycle;Max_cycle;Signal;HPM_P1;HPM_P2
2022/01/28 00:00:49;;;;;;;7.82;5.57;;;-7.40;92.90;-8.20;97614.00;;;;5011286;28;87624;-59
2022/01/28 00:03:16;;;;;;;8.40;6.20;;;-7.40;92.90;-8.20;97599.00;;;;5017988;28;87257;-58
2022/01/28 00:05:43;;;;;;;8.25;6.30;;;-7.40;93.00;-8.20;97612.00;;;;5021803;28;87942;-58
2022/01/28 00:08:09;;;;;;;8.25;6.18;;;-7.40;93.00;-8.20;97614.00;;;;5021381;28;87788;-58
2022/01/28 00:10:39;;;;;;;9.95;6.38;;;-7.40;93.00;-8.30;97607.00;;;;5020526;28;87710;-58
2022/01/28 00:13:21;;;;;;;8.82;6.57;;;-7.40;92.90;-8.30;97593.00;;;;5019813;28;87401;-58
2022/01/28 00:39:27;;;;;;;9.43;7.15;;;-7.60;94.50;-8.40;97576.00;;;;5021233;28;87303;-58
2022/01/28 00:41:53;;;;;;;9.90;7.47;;;-7.60;94.60;-8.40;97576.00;;;;5020104;28;88787;-57
2022/01/28 00:44:19;;;;;;;9.10;7.65;;;-7.60;94.60;-8.40;97572.00;;;;5022058;28;87904;-58
2022/01/28 00:46:45;;;;;;;8.57;7.07;;;-7.60;94.50;-8.40;97568.00;;;;5021904;28;87182;-60
2022/01/28 00:49:11;;;;;;;10.38;7.40;;;-7.60;94.50;-8.40;97571.00;;;;5022278;28;86633;-58
2022/01/28 00:51:37;;;;;;;11.15;7.85;;;-7.60;94.60;-8.40;97576.00;;;;5021017;28;88645;-60
2022/01/28 00:54:04;;;;;;;10.15;7.53;;;-7.50;94.60;-8.40;97562.00;;;;5021566;28;87389;-58
2022/01/28 00:56:30;;;;;;;8.82;7.40;;;-7.50;94.70;-8.40;97550.00;;;;5020921;28;87887;-60
2022/01/28 00:58:56;;;;;;;10.23;7.93;;;-7.60;94.70;-8.40;97548.00;;;;5021606;28;86976;-59
2022/01/28 01:01:22;;;;;;;9.63;7.60;;;-7.50;94.70;-8.30;97541.00;;;;5021298;28;88299;-59
2022/01/28 01:03:48;;;;;;;8.80;7.53;;;-7.50;95.00;-8.40;97534.00;;;;5021622;28;87248;-59
2022/01/28 01:06:15;;;;;;;10.95;7.78;;;-7.50;95.10;-8.30;97534.00;;;;5021430;28;86911;-59
2022/01/28 01:08:41;;;;;;;9.88;7.57;;;-7.50;95.10;-8.30;97540.00;;;;5020667;28;87147;-59
2022/01/28 01:11:07;;;;;;;9.50;7.82;;;-7.50;95.10;-8.30;97529.00;;;;5020379;28;87719;-59
2022/01/28 01:13:37;;;;;;;9.40;7.65;;;-7.50;95.10;-8.30;97529.00;;;;5019946;28;87189;-59
2022/01/28 01:16:04;;;;;;;9.90;7.55;;;-7.50;95.00;-8.30;97530.00;;;;5014880;28;86916;-59
2022/01/28 01:23:32;;;;;;;9.68;8.13;;;-7.40;95.10;-8.30;97520.00;;;;5020636;28;88809;-58
2022/01/28 01:28:32;;;;;;;11.82;7.95;;;-7.40;95.00;-8.20;97513.00;;;;5020833;28;87049;-59
2022/01/28 01:31:01;;;;;;;10.68;7.35;;;-7.40;95.00;-8.20;97504.00;;;;5021442;28;87622;-59
2022/01/28 01:33:30;;;;;;;9.73;7.53;;;-7.40;95.00;-8.20;97513.00;;;;5019322;28;87242;-59
2022/01/28 01:35:59;;;;;;;11.38;8.13;;;-7.40;94.90;-8.10;97515.00;;;;5019924;28;87420;-59
2022/01/28 01:38:28;;;;;;;11.40;8.13;;;-7.30;94.90;-8.10;97499.00;;;;5020928;28;86304;-58
2022/01/28 01:40:58;;;;;;;9.35;7.72;;;-7.30;94.90;-8.10;97494.00;;;;5015393;28;88568;-58
2022/01/28 01:54:16;;;;;;;10.30;7.68;;;-7.20;94.70;-8.00;97492.00;;;;5020514;28;87798;-58
2022/01/28 01:56:42;;;;;;;9.77;7.30;;;-7.20;94.70;-8.00;97494.00;;;;5019671;28;87252;-58
2022/01/28 01:59:09;;;;;;;10.43;8.43;;;-7.20;94.60;-8.00;97487.00;;;;5020778;28;86991;-58
2022/01/28 02:01:38;;;;;;;9.10;6.93;;;-7.20;94.70;-8.00;97491.00;;;;5020509;28;87540;-59
2022/01/28 02:04:06;;;;;;;9.25;7.70;;;-7.20;94.60;-8.00;97491.00;;;;5020650;28;87404;-59
2022/01/28 02:06:32;;;;;;;8.50;7.47;;;-7.20;94.50;-8.10;97485.00;;;;5019740;28;87360;-60
2022/01/28 02:08:59;;;;;;;9.88;7.72;;;-7.20;94.60;-8.00;97498.00;;;;5019719;28;87143;-58
2022/01/28 02:11:25;;;;;;;10.98;7.35;;;-7.20;94.70;-8.10;97489.00;;;;5018427;28;88847;-59
2022/01/28 02:13:52;;;;;;;9.65;7.57;;;-7.20;94.60;-8.10;97489.00;;;;5018939;28;88370;-59
2022/01/28 02:16:19;;;;;;;10.40;7.20;;;-7.30;94.50;-8.10;97488.00;;;;5019925;28;87413;-58
2022/01/28 02:18:45;;;;;;;10.35;7.13;;;-7.20;94.50;-8.10;97489.00;;;;5018757;28;87607;-59
2022/01/28 02:21:14;;;;;;;9.93;7.05;;;-7.30;94.60;-8.10;97485.00;;;;5020100;28;88155;-58
2022/01/28 02:23:43;;;;;;;10.20;7.60;;;-7.30;94.50;-8.10;97484.00;;;;5019755;28;87443;-60
2022/01/28 02:26:15;;;;;;;10.02;7.50;;;-7.30;94.50;-8.10;97490.00;;;;5019334;28;87500;-58
2022/01/28 02:28:44;;;;;;;10.07;8.07;;;-7.30;94.60;-8.10;97486.00;;;;5023522;28;86667;-59
2022/01/28 02:31:10;;;;;;;9.02;6.70;;;-7.30;94.50;-8.20;97465.00;;;;5023800;28;87861;-59
2022/01/28 02:33:36;;;;;;;9.48;7.35;;;-7.40;94.50;-8.20;97458.00;;;;5023368;28;87359;-59
2022/01/28 02:36:05;;;;;;;10.95;7.53;;;-7.40;94.50;-8.20;97453.00;;;;5023445;28;87948;-59
2022/01/28 02:38:33;;;;;;;9.77;7.43;;;-7.40;94.50;-8.20;97463.00;;;;5022963;28;87131;-59
2022/01/28 02:41:01;;;;;;;9.57;7.45;;;-7.40;94.50;-8.20;97450.00;;;;5019485;28;87568;-58
2022/01/28 02:43:43;;;;;;;9.77;7.35;;;-7.40;94.50;-8.30;97455.00;;;;5023366;28;87309;-59
2022/01/28 02:46:15;;;;;;;8.88;6.90;;;-7.40;94.60;-8.30;97435.00;;;;5023859;28;87025;-59
2022/01/28 02:48:53;;;;;;;8.75;7.13;;;-7.40;94.60;-8.20;97452.00;;;;5023267;28;87369;-59
2022/01/28 02:51:21;;;;;;;12.65;8.55;;;-7.40;94.70;-8.20;97437.00;;;;5015791;28;87620;-59
2022/01/28 02:53:53;;;;;;;9.45;7.70;;;-7.40;94.60;-8.20;97442.00;;;;5023145;28;89425;-59
2022/01/28 02:56:22;;;;;;;;;;;-7.40;94.60;-8.20;97436.00;;;;5023317;28;87423;-59
2022/01/28 02:58:49;;;;;;;11.88;8.05;;;-7.40;94.70;-8.20;97433.00;;;;5023658;28;87015;-59
2022/01/28 03:01:18;;;;;;;10.20;7.95;;;-7.40;94.60;-8.20;97434.00;;;;5022431;28;88678;-59
2022/01/28 03:03:46;;;;;;;12.23;7.90;;;-7.40;94.70;-8.20;97431.00;;;;5021899;28;88305;-61
2022/01/28 03:06:15;;;;;;;11.43;8.13;;;-7.40;94.60;-8.20;97438.00;;;;5022978;28;86961;-59
2022/01/28 03:08:46;;;;;;;13.57;9.15;;;-7.40;94.60;-8.20;97430.00;;;;5022007;28;87668;-59
2022/01/28 03:16:30;;;;;;;11.37;8.53;;;-7.40;94.50;-8.20;97423.00;;;;5023161;28;87228;-59
2022/01/28 03:19:13;;;;;;;;;;;-7.40;94.70;-8.20;97401.00;;;;5023201;28;86355;-58
2022/01/28 03:21:45;;;;;;;10.55;8.38;;;-7.40;94.60;-8.20;97432.00;;;;5023511;28;87665;-58
2022/01/28 03:24:12;;;;;;;12.45;9.27;;;-7.40;94.60;-8.20;97415.00;;;;5022752;28;87365;-59
2022/01/28 03:26:39;;;;;;;12.07;9.52;;;-7.40;94.70;-8.20;97412.00;;;;5021339;28;88437;-59
2022/01/28 03:29:06;;;;;;;12.25;8.73;;;-7.40;94.60;-8.20;97412.00;;;;5027053;28;87094;-59
2022/01/28 03:31:32;;;;;;;11.23;8.80;;;-7.40;94.70;-8.20;97410.00;;;;5023111;28;88737;-59
2022/01/28 03:33:58;;;;;;;11.85;10.10;;;-7.40;94.70;-8.20;97414.00;;;;5022775;28;88273;-59
2022/01/28 03:36:24;;;;;;;13.60;10.48;;;-7.40;94.80;-8.20;97422.00;;;;5021748;28;87342;-59
2022/01/28 03:38:50;;;;;;;14.23;10.30;;;-7.40;94.80;-8.20;97418.00;;;;5020115;28;87051;-60
2022/01/28 03:41:17;;;;;;;12.50;10.65;;;-7.40;94.90;-8.20;97407.00;;;;5022211;28;87666;-59
2022/01/28 03:43:47;;;;;;;12.10;10.48;;;-7.40;94.80;-8.20;97418.00;;;;5021050;28;88603;-59
2022/01/28 03:46:15;;;;;;;14.50;10.77;;;-7.30;95.00;-8.20;97408.00;;;;5022156;28;86937;-59
2022/01/28 03:48:41;;;;;;;13.95;10.95;;;-7.40;95.00;-8.20;97417.00;;;;5021820;28;87206;-59
2022/01/28 03:51:08;;;;;;;16.17;12.10;;;-7.40;94.90;-8.10;97402.00;;;;5021184;28;89514;-59
2022/01/28 03:53:34;;;;;;;13.63;11.25;;;-7.30;95.00;-8.20;97401.00;;;;5021507;28;87297;-59
2022/01/28 03:56:00;;;;;;;15.68;12.00;;;-7.30;95.00;-8.10;97405.00;;;;5022032;28;87036;-59
2022/01/28 03:58:27;;;;;;;14.32;11.60;;;-7.30;95.00;-8.10;97387.00;;;;5022105;28;87680;-59
2022/01/28 04:00:55;;;;;;;13.95;12.35;;;-7.30;94.90;-8.10;97404.00;;;;5021756;28;88117;-59
2022/01/28 04:11:33;;;;;;;15.18;12.70;;;-7.30;95.00;-8.10;97411.00;;;;4991020;28;87751;-59
2022/01/28 04:14:13;;;;;;;13.82;12.02;;;-7.30;95.00;-8.10;97411.00;;;;5013657;28;88563;-59
2022/01/28 04:19:24;;;;;;;15.57;12.10;;;-7.30;94.80;-8.10;97393.00;;;;5019636;28;87053;-59
2022/01/28 04:21:51;;;;;;;18.95;12.00;;;-7.30;94.80;-8.10;97383.00;;;;5021251;28;86960;-59
2022/01/28 04:24:17;;;;;;;15.43;12.27;;;-7.30;94.80;-8.10;97396.00;;;;5019558;28;88452;-59
2022/01/28 04:26:43;;;;;;;15.77;12.43;;;-7.30;94.70;-8.10;97388.00;;;;5020276;28;86890;-60
2022/01/28 04:29:11;;;;;;;13.38;11.93;;;-7.30;94.80;-8.10;97372.00;;;;5020857;28;87875;-59
2022/01/28 04:31:42;;;;;;;15.18;12.07;;;-7.30;94.80;-8.10;97381.00;;;;5020978;28;87436;-60
2022/01/28 04:34:10;;;;;;;15.23;11.90;;;-7.30;94.80;-8.10;97372.00;;;;5021206;28;87507;-59
2022/01/28 04:36:44;;;;;;;16.20;12.23;;;-7.30;94.70;-8.10;97381.00;;;;5020786;28;87351;-59
2022/01/28 04:39:19;;;;;;;16.33;12.65;;;-7.30;94.90;-8.10;97376.00;;;;5019917;28;87234;-59
2022/01/28 04:42:05;;;;;;;15.35;12.25;;;-7.30;94.80;-8.10;97385.00;;;;5020394;28;88634;-59
2022/01/28 04:44:46;;;;;;;14.02;11.82;;;-7.30;94.80;-8.10;97393.00;;;;5009572;28;88383;-60
2022/01/28 04:47:20;;;;;;;14.70;11.95;;;-7.20;94.90;-8.10;97377.00;;;;5020905;28;87393;-58
2022/01/28 04:53:12;;;;;;;15.75;12.18;;;-7.20;94.80;-8.00;97380.00;;;;5020391;28;87564;-59
2022/01/28 04:58:26;;;;;;;14.13;11.90;;;-7.20;94.80;-8.00;97392.00;;;;5020528;28;87283;-58
2022/01/28 05:14:46;;;;;;;16.23;12.70;;;-7.10;94.90;-7.90;97371.00;;;;5015512;28;87772;-58
2022/01/28 05:25:38;;;;;;;15.60;11.88;;;-7.10;94.70;-7.80;97362.00;;;;5015892;28;88450;-59
2022/01/28 05:27:48;;;;;;;14.88;12.23;;;-7.00;94.70;-7.80;97366.00;;;;5019079;28;87998;-59
2022/01/28 05:30:14;;;;;;;13.70;11.85;;;-7.10;94.70;-7.80;97366.00;;;;5019688;28;87531;-59
2022/01/28 05:32:41;;;;;;;15.65;12.60;;;-7.10;94.70;-7.80;97374.00;;;;5018472;28;87387;-59
2022/01/28 05:35:07;;;;;;;20.90;11.95;;;-7.10;94.90;-7.80;97338.00;;;;5019588;28;90012;-61
2022/01/28 05:37:33;;;;;;;15.30;11.52;;;-7.00;95.00;-7.80;97353.00;;;;5018862;28;88346;-57
2022/01/28 05:40:00;;;;;;;14.23;12.02;;;-7.00;94.90;-7.80;97350.00;;;;5019282;28;87062;-59
2022/01/28 05:42:26;;;;;;;15.02;12.05;;;-7.00;95.00;-7.80;97351.00;;;;5019857;28;87222;-60
2022/01/28 05:44:52;;;;;;;16.10;12.38;;;-7.00;95.10;-7.70;97359.00;;;;5019587;28;88261;-60
2022/01/28 05:47:19;;;;;;;14.98;12.02;;;-7.00;95.10;-7.70;97357.00;;;;5017806;28;88798;-60
2022/01/28 05:49:45;;;;;;;15.88;12.45;;;-6.90;95.20;-7.70;97359.00;;;;5019385;28;87112;-60
2022/01/28 05:52:11;;;;;;;14.27;11.73;;;-6.90;95.20;-7.70;97361.00;;;;5020411;28;86371;-59
2022/01/28 05:54:38;;;;;;;14.95;11.98;;;-6.90;95.40;-7.80;97363.00;;;;5019332;28;87540;-60
2022/01/28 05:57:04;;;;;;;13.48;11.35;;;-7.00;95.30;-7.70;97368.00;;;;5019668;28;87599;-60
2022/01/28 05:59:31;;;;;;;14.15;12.55;;;-7.00;95.40;-7.70;97355.00;;;;5019084;28;88213;-60
2022/01/28 06:01:57;;;;;;;15.23;11.90;;;-6.90;95.60;-7.70;97347.00;;;;5018186;28;86962;-60
2022/01/28 06:04:23;;;;;;;15.90;11.30;;;-6.90;95.50;-7.70;97334.00;;;;5019718;28;87699;-60
2022/01/28 06:06:49;;;;;;;14.25;12.02;;;-6.90;95.40;-7.60;97341.00;;;;5019067;28;87456;-60
2022/01/28 06:09:15;;;;;;;13.10;11.15;;;-6.90;95.40;-7.60;97349.00;;;;5018673;28;87387;-60
2022/01/28 06:11:45;;;;;;;14.55;11.60;;;-6.90;95.40;-7.60;97343.00;;;;5018633;28;87029;-60
2022/01/28 06:14:11;;;;;;;13.95;11.63;;;-6.80;95.40;-7.60;97337.00;;;;5018077;28;90507;-61
2022/01/28 06:16:37;;;;;;;13.50;11.55;;;-6.80;95.40;-7.60;97342.00;;;;5019730;28;87270;-61
2022/01/28 06:19:03;;;;;;;14.65;11.10;;;-6.80;95.40;-7.50;97336.00;;;;5018930;28;87396;-58
2022/01/28 06:21:30;;;;;;;14.32;11.43;;;-6.80;95.30;-7.50;97337.00;;;;5019465;28;87085;-59
2022/01/28 06:23:56;;;;;;;14.45;11.10;;;-6.70;95.30;-7.50;97345.00;;;;5018418;28;88805;-60
2022/01/28 06:26:22;;;;;;;19.10;10.95;;;-6.70;95.30;-7.50;97340.00;;;;5018894;28;89086;-59
2022/01/28 06:28:48;;;;;;;13.35;10.82;;;-6.70;95.30;-7.50;97342.00;;;;5018959;28;87551;-60
2022/01/28 06:31:14;;;;;;;15.35;12.35;;;-6.70;95.40;-7.50;97341.00;;;;5019601;28;87077;-59
2022/01/28 06:33:41;;;;;;;12.20;10.95;;;-6.70;95.50;-7.50;97332.00;;;;5018685;28;88627;-58
2022/01/28 06:36:07;;;;;;;13.15;11.10;;;-6.70;95.50;-7.40;97334.00;;;;5019027;28;87304;-61
2022/01/28 06:38:33;;;;;;;14.38;12.13;;;-6.60;95.50;-7.40;97354.00;;;;5018591;28;86943;-61
2022/01/28 06:40:59;;;;;;;14.73;11.82;;;-6.60;95.50;-7.30;97329.00;;;;5019438;28;86723;-61
2022/01/28 06:43:25;;;;;;;14.52;11.85;;;-6.50;95.50;-7.20;97328.00;;;;5019167;28;87690;-60
2022/01/28 06:45:51;;;;;;;13.60;11.30;;;-6.50;95.50;-7.20;97327.00;;;;5018935;28;87380;-62
2022/01/28 06:48:19;;;;;;;13.20;10.27;;;-6.40;95.40;-7.10;97330.00;;;;5018524;28;88448;-61
2022/01/28 06:50:46;;;;;;;13.23;11.00;;;-6.30;95.10;-7.10;97319.00;;;;5017638;28;87077;-61
2022/01/28 06:53:13;;;;;;;13.65;11.15;;;-6.30;95.10;-7.00;97320.00;;;;5018896;28;87775;-61
2022/01/28 06:55:40;;;;;;;15.88;10.65;;;-6.30;94.90;-6.90;97329.00;;;;5018758;28;87622;-62
2022/01/28 06:58:08;;;;;;;13.13;11.00;;;-6.20;94.90;-6.90;97318.00;;;;5018711;28;87240;-60
2022/01/28 07:00:38;;;;;;;11.93;10.63;;;-6.20;94.80;-6.90;97317.00;;;;5019060;28;87095;-60
2022/01/28 07:03:11;;;;;;;12.75;10.32;;;-6.10;94.60;-6.90;97323.00;;;;5017835;28;87766;-60
2022/01/28 07:05:38;;;;;;;12.55;10.65;;;-6.10;94.50;-6.80;97319.00;;;;5019583;28;87925;-60
2022/01/28 07:08:05;;;;;;;14.70;11.57;;;-6.10;94.50;-6.90;97306.00;;;;5018092;28;87031;-60
2022/01/28 07:10:32;;;;;;;14.50;11.98;;;-6.20;94.50;-6.80;97330.00;;;;5017640;28;87201;-60
2022/01/28 07:12:58;;;;;;;12.00;10.38;;;-6.10;94.60;-6.80;97318.00;;;;5018114;28;91095;-61
2022/01/28 07:15:26;;;;;;;13.77;11.10;;;-6.00;94.60;-6.80;97326.00;;;;5013905;28;88303;-61
2022/01/28 07:17:54;;;;;;;12.68;10.85;;;-6.00;94.50;-6.80;97332.00;;;;5021364;28;87124;-61
2022/01/28 07:20:21;;;;;;;13.70;11.43;;;-6.00;94.60;-6.80;97328.00;;;;5019507;28;87280;-60
2022/01/28 07:22:47;;;;;;;12.60;11.30;;;-6.00;94.80;-6.80;97326.00;;;;5021843;28;88253;-60
2022/01/28 07:25:14;;;;;;;13.93;12.25;;;-6.00;94.80;-6.80;97330.00;;;;5021105;28;87219;-61
2022/01/28 07:27:40;;;;;;;14.35;12.85;;;-6.10;94.60;-6.80;97340.00;;;;5003206;28;87515;-61
2022/01/28 07:30:09;;;;;;;14.80;12.68;;;-6.10;94.60;-6.80;97334.00;;;;5022187;28;86291;-61
2022/01/28 07:32:36;;;;;;;15.57;13.15;;;-6.00;94.60;-6.80;97339.00;;;;5021691;28;87746;-61
2022/01/28 07:35:04;;;;;;;14.60;13.07;;;-6.10;94.60;-6.80;97335.00;;;;5021695;28;87513;-61
2022/01/28 07:37:30;;;;;;;13.48;11.75;;;-6.10;94.70;-6.80;97340.00;;;;5020328;28;88244;-61
2022/01/28 07:39:56;;;;;;;14.45;12.35;;;-6.10;94.80;-6.90;97337.00;;;;5021407;28;87349;-62
2022/01/28 07:42:24;;;;;;;13.77;11.73;;;-6.10;94.80;-6.80;97339.00;;;;5021654;28;88279;-60
2022/01/28 07:44:50;;;;;;;14.18;11.45;;;-6.10;95.20;-6.70;97324.00;;;;5021784;28;87040;-61
2022/01/28 07:47:16;;;;;;;13.07;11.68;;;-6.00;94.90;-6.70;97323.00;;;;5020762;28;87410;-60
2022/01/28 07:49:42;;;;;;;12.20;10.98;;;-5.90;94.50;-6.60;97330.00;;;;5021079;28;87312;-61
2022/01/28 07:52:08;;;;;;;13.13;11.15;;;-5.90;94.60;-6.50;97329.00;;;;5021760;28;87688;-60
2022/01/28 07:54:34;;;;;;;14.25;11.90;;;-5.80;94.80;-6.50;97327.00;;;;5021935;28;87513;-61
2022/01/28 07:57:01;;;;;;;13.48;11.35;;;-5.70;94.70;-6.40;97322.00;;;;5020983;28;87675;-60
2022/01/28 07:59:28;;;;;;;13.00;11.60;;;-5.70;94.80;-6.40;97321.00;;;;5020356;28;87409;-61
2022/01/28 08:01:54;;;;;;;13.32;11.93;;;-5.70;94.70;-6.30;97340.00;;;;5020709;28;89220;-58
2022/01/28 08:04:20;;;;;;;15.15;11.68;;;-5.60;94.80;-6.20;97329.00;;;;5020234;28;88938;-58
2022/01/28 08:06:46;;;;;;;13.88;11.93;;;-5.40;94.80;-6.10;97333.00;;;;5020476;28;86998;-59
2022/01/28 08:09:12;;;;;;;15.98;13.02;;;-5.40;94.60;-6.00;97328.00;;;;5020514;28;87499;-58
2022/01/28 08:11:38;;;;;;;13.95;11.70;;;-5.40;94.20;-6.00;97321.00;;;;5020381;28;87903;-60
2022/01/28 08:14:04;;;;;;;14.95;12.20;;;-5.30;94.20;-6.00;97317.00;;;;5019868;28;89723;-59
2022/01/28 08:16:30;;;;;;;14.70;12.20;;;-5.30;93.90;-6.00;97315.00;;;;5020398;28;87059;-59
2022/01/28 08:18:56;;;;;;;15.20;13.25;;;-5.20;93.90;-5.90;97317.00;;;;5020948;28;86744;-59
2022/01/28 08:21:22;;;;;;;14.18;12.68;;;-5.20;93.90;-5.70;97329.00;;;;5020994;28;87704;-59
2022/01/28 08:23:48;;;;;;;15.75;12.55;;;-5.00;93.90;-5.70;97324.00;;;;5019727;28;87463;-59
2022/01/28 08:26:16;;;;;;;15.30;12.55;;;-5.00;93.60;-5.70;97321.00;;;;5019875;28;88246;-59
2022/01/28 08:28:42;;;;;;;15.82;13.38;;;-5.00;93.60;-5.80;97316.00;;;;5020518;28;87006;-59
2022/01/28 08:31:09;;;;;;;15.57;13.63;;;-5.10;93.70;-5.70;97323.00;;;;5021071;28;87665;-59
2022/01/28 08:33:35;;;;;;;14.63;12.95;;;-5.00;94.00;-5.70;97299.00;;;;5020804;28;87390;-60
2022/01/28 08:36:02;;;;;;;17.25;13.00;;;-5.00;93.50;-5.70;97312.00;;;;5020890;28;86978;-61
2022/01/28 08:38:38;;;;;;;15.68;12.77;;;-5.10;93.60;-5.80;97320.00;;;;5003043;28;86992;-61
2022/01/28 08:41:04;;;;;;;15.40;13.05;;;-5.10;93.60;-5.70;97309.00;;;;5020598;28;87959;-62
2022/01/28 08:43:32;;;;;;;15.90;13.38;;;-5.00;93.60;-5.70;97295.00;;;;5020779;28;87186;-62
2022/01/28 08:45:59;;;;;;;15.70;13.73;;;-5.00;93.30;-5.70;97299.00;;;;5020879;28;87139;-62
2022/01/28 08:48:25;;;;;;;15.57;13.60;;;-5.00;93.20;-5.70;97296.00;;;;5021015;28;86948;-62
2022/01/28 08:50:52;;;;;;;14.57;13.05;;;-4.90;93.10;-5.50;97302.00;;;;5020057;28;88546;-62
2022/01/28 08:53:18;;;;;;;15.80;13.27;;;-4.80;93.20;-5.40;97291.00;;;;5019923;28;88375;-62
2022/01/28 08:55:44;;;;;;;14.73;13.00;;;-4.70;93.00;-5.20;97300.00;;;;5020633;28;87054;-61
2022/01/28 08:58:10;;;;;;;16.15;14.43;;;-4.50;92.70;-5.30;97286.00;;;;5020794;28;87022;-60
2022/01/28 09:00:37;;;;;;;16.98;13.82;;;-4.70;92.30;-5.30;97281.00;;;;5019570;28;87855;-61
2022/01/28 09:03:04;;;;;;;17.45;14.30;;;-4.70;92.30;-5.40;97293.00;;;;5018826;28;88623;-61
2022/01/28 09:05:30;;;;;;;16.23;14.50;;;-4.80;92.60;-5.50;97294.00;;;;5020561;28;87066;-61
2022/01/28 09:07:56;;;;;;;17.38;15.10;;;-4.90;92.90;-5.60;97276.00;;;;5020331;28;86550;-61
2022/01/28 09:10:29;;;;;;;18.30;15.00;;;-4.90;93.20;-5.60;97297.00;;;;5018396;28;88131;-61
2022/01/28 09:15:27;;;;;;;18.98;15.82;;;-4.90;93.20;-5.60;97299.00;;;;5020375;28;88001;-61
2022/01/28 09:17:53;;;;;;;18.48;15.32;;;-5.00;92.90;-5.70;97280.00;;;;5019898;28;87059;-61
2022/01/28 09:20:19;;;;;;;22.23;16.45;;;-5.00;93.10;-5.70;97289.00;;;;5018162;28;88881;-61
2022/01/28 09:22:45;;;;;;;19.15;15.25;;;-5.00;93.40;-5.70;97276.00;;;;5019821;28;87634;-61
2022/01/28 09:25:12;;;;;;;19.83;15.73;;;-5.00;93.60;-5.80;97285.00;;;;5018754;28;87160;-61
2022/01/28 09:27:38;;;;;;;21.83;15.98;;;-5.10;93.50;-5.90;97273.00;;;;5019569;28;87501;-61
2022/01/28 09:30:04;;;;;;;18.33;15.85;;;-5.20;93.60;-5.90;97274.00;;;;5019429;28;87499;-61
2022/01/28 09:32:31;;;;;;;20.02;17.20;;;-5.20;93.90;-5.90;97254.00;;;;5018838;28;88875;-60
2022/01/28 09:34:57;;;;;;;18.45;16.25;;;-5.10;94.10;-5.80;97276.00;;;;5019534;28;87364;-61
2022/01/28 09:37:23;;;;;;;18.45;16.45;;;-5.10;93.70;-5.80;97268.00;;;;5019266;28;86964;-60
2022/01/28 09:39:49;;;;;;;19.23;16.77;;;-5.10;93.50;-5.70;97278.00;;;;5018401;28;88761;-59
2022/01/28 09:42:19;;;;;;;19.70;16.90;;;-5.00;93.50;-5.60;97273.00;;;;5019626;28;88255;-58
2022/01/28 09:44:46;;;;;;;20.23;17.02;;;-4.90;93.60;-5.60;97271.00;;;;5019548;28;86924;-60
2022/01/28 09:47:12;;;;;;;19.08;16.52;;;-4.90;93.50;-5.50;97274.00;;;;5019779;28;87024;-59
2022/01/28 09:49:40;;;;;;;20.85;17.83;;;-4.80;93.30;-5.50;97268.00;;;;5018924;28;87691;-60
2022/01/28 09:52:10;;;;;;;20.58;17.00;;;-4.80;93.00;-5.50;97270.00;;;;5019672;28;87637;-60
2022/01/28 09:54:37;;;;;;;19.77;17.10;;;-4.80;93.20;-5.60;97269.00;;;;5019813;28;86923;-61
2022/01/28 09:57:06;;;;;;;20.25;17.58;;;-4.90;93.20;-5.60;97267.00;;;;5019953;28;86179;-61
2022/01/28 09:59:33;;;;;;;20.65;18.00;;;-4.90;93.30;-5.60;97264.00;;;;5019294;28;87623;-60
2022/01/28 10:01:59;;;;;;;20.58;18.00;;;-5.00;93.50;-5.60;97272.00;;;;5019512;28;88895;-61
2022/01/28 10:04:26;;;;;;;23.73;18.73;;;-5.00;93.60;-5.70;97277.00;;;;5019236;28;88285;-61
2022/01/28 10:06:54;;;;;;;23.10;18.88;;;-5.10;93.60;-5.80;97266.00;;;;5019490;28;87068;-60
2022/01/28 10:09:23;;;;;;;21.25;18.70;;;-5.10;93.90;-5.70;97277.00;;;;5017255;28;87593;-60
2022/01/28 10:11:53;;;;;;;20.02;17.90;;;-5.00;94.00;-5.70;97260.00;;;;5018354;28;87414;-59
2022/01/28 10:14:23;;;;;;;22.00;19.30;;;-5.00;93.80;-5.70;97249.00;;;;5018720;28;87431;-59
2022/01/28 10:16:59;;;;;;;21.95;18.67;;;-5.00;93.50;-5.80;97267.00;;;;5014633;28;87019;-58
2022/01/28 10:19:37;;;;;;;24.90;19.50;;;-5.10;93.60;-5.80;97255.00;;;;5018572;28;87685;-58
2022/01/28 10:22:16;;;;;;;23.02;19.25;;;-5.10;93.70;-5.80;97256.00;;;;5019628;28;87502;-59
2022/01/28 10:24:42;;;;;;;23.95;19.75;;;-5.10;93.60;-5.70;97256.00;;;;5018540;28;87202;-60
2022/01/28 10:27:09;;;;;;;25.30;19.98;;;-5.00;94.00;-5.80;97255.00;;;;5016674;28;87021;-60
2022/01/28 10:29:43;;;;;;;24.95;21.23;;;-5.10;93.90;-5.80;97264.00;;;;5017764;28;89478;-61
2022/01/28 10:32:21;;;;;;;24.80;21.15;;;-5.10;93.90;-5.80;97255.00;;;;5018439;28;89040;-61
2022/01/28 10:34:50;;;;;;;23.55;20.50;;;-5.10;93.90;-5.70;97242.00;;;;5017680;28;87368;-60
2022/01/28 10:37:29;;;;;;;27.15;22.67;;;-5.00;94.10;-5.70;97261.00;;;;5017762;28;87040;-61
2022/01/28 10:40:22;;;;;;;26.17;22.67;;;-5.00;93.80;-5.70;97238.00;;;;5017356;28;90103;-60
2022/01/28 10:42:52;;;;;;;26.65;22.63;;;-5.00;93.80;-5.60;97242.00;;;;5016901;28;87439;-60
2022/01/28 10:45:28;;;;;;;25.25;22.13;;;-5.00;93.90;-5.50;97245.00;;;;5018288;28;87456;-59
2022/01/28 10:47:58;;;;;;;26.08;22.38;;;-4.80;93.80;-5.50;97243.00;;;;5010130;28;86537;-59
2022/01/28 10:50:38;;;;;;;27.75;22.85;;;-4.80;93.70;-5.40;97240.00;;;;5022087;28;87749;-60
2022/01/28 10:53:11;;;;;;;28.40;23.15;;;-4.80;93.50;-5.40;97234.00;;;;5022181;28;87437;-58
2022/01/28 10:55:39;;;;;;;28.00;23.52;;;-4.70;93.60;-5.40;97236.00;;;;5021789;28;87891;-60
2022/01/28 10:58:15;;;;;;;27.67;23.85;;;-4.70;93.40;-5.40;97230.00;;;;5022498;28;87328;-60
2022/01/28 11:01:02;;;;;;;27.90;24.05;;;-4.70;93.50;-5.40;97231.00;;;;5004219;28;89014;-60
2022/01/28 11:03:28;;;;;;;31.95;25.48;;;-4.80;93.50;-5.50;97232.00;;;;5020398;28;87543;-59
2022/01/28 11:05:59;;;;;;;29.40;24.40;;;-4.80;93.50;-5.60;97229.00;;;;5022551;28;86893;-59
2022/01/28 11:08:31;;;;;;;30.30;24.42;;;-4.90;93.60;-5.70;97221.00;;;;5020601;28;87112;-58
2022/01/28 11:10:58;;;;;;;31.13;25.42;;;-5.00;93.90;-5.60;97227.00;;;;5021242;28;87746;-61
2022/01/28 11:13:25;;;;;;;31.88;24.95;;;-5.00;94.00;-5.60;97223.00;;;;5019110;28;87329;-60
2022/01/28 11:15:51;;;;;;;30.23;25.48;;;-5.00;93.90;-5.60;97235.00;;;;5021663;28;87076;-60
2022/01/28 11:18:18;;;;;;;29.85;25.25;;;-4.90;94.00;-5.70;97215.00;;;;5020924;28;87007;-60
2022/01/28 11:20:53;;;;;;;33.00;27.45;;;-5.00;94.00;-5.60;97226.00;;;;5019648;28;88455;-59
2022/01/28 11:23:52;;;;;;;30.02;25.85;;;-4.90;94.00;-5.60;97227.00;;;;5020170;28;88371;-59
2022/01/28 11:26:23;;;;;;;29.30;25.98;;;-4.90;94.00;-5.60;97232.00;;;;5030416;27;88112;-59
2022/01/28 11:28:54;;;;;;;33.33;27.23;;;-4.90;94.00;-5.70;97221.00;;;;5017943;28;87002;-59
2022/01/28 11:31:51;;;;;;;35.22;28.00;;;-5.00;94.00;-5.60;97220.00;;;;5020818;28;87580;-60
2022/01/28 11:34:28;;;;;;;34.03;27.55;;;-5.00;94.20;-5.70;97214.00;;;;5018965;28;87136;-60
2022/01/28 11:37:18;;;;;;;33.55;28.02;;;-5.00;94.00;-5.80;97224.00;;;;5021396;28;87315;-59
2022/01/28 11:39:46;;;;;;;31.95;27.58;;;-5.20;94.50;-5.80;97222.00;;;;5016730;28;86356;-59
2022/01/28 11:42:19;;;;;;;34.95;28.45;;;-5.10;94.80;-5.90;97218.00;;;;5041728;27;87828;-60
2022/01/28 11:44:51;;;;;;;34.47;28.38;;;-5.10;94.70;-5.80;97227.00;;;;5019766;28;87573;-61
2022/01/28 11:47:24;;;;;;;35.28;30.00;;;-5.10;94.70;-5.90;97237.00;;;;5020371;28;88032;-59
2022/01/28 11:49:58;;;;;;;37.95;30.10;;;-5.20;94.80;-5.90;97231.00;;;;5020781;28;87404;-61
2022/01/28 11:52:38;;;;;;;37.70;30.35;;;-5.20;94.80;-5.90;97226.00;;;;5021512;28;88416;-60
2022/01/28 11:55:25;;;;;;;36.85;30.63;;;-5.20;94.90;-5.90;97227.00;;;;5016231;28;87428;-61
2022/01/28 11:58:09;;;;;;;35.13;29.25;;;-5.20;95.00;-5.90;97234.00;;;;5020824;28;87121;-60
2022/01/28 12:00:39;;;;;;;37.70;30.83;;;-5.20;95.00;-5.90;97223.00;;;;5020479;28;87277;-60
2022/01/28 12:03:25;;;;;;;44.67;30.60;;;-5.20;95.00;-5.90;97231.00;;;;5019337;28;88301;-59
2022/01/28 12:06:07;;;;;;;38.08;30.42;;;-5.20;95.00;-5.90;97226.00;;;;5017424;28;87451;-59
2022/01/28 12:08:33;;;;;;;39.17;31.40;;;-5.20;95.00;-5.90;97229.00;;;;5017596;28;87413;-59
2022/01/28 12:11:03;;;;;;;39.85;31.75;;;-5.20;95.10;-5.90;97230.00;;;;5018984;28;87123;-59
2022/01/28 12:13:33;;;;;;;38.17;31.27;;;-5.20;95.00;-5.90;97229.00;;;;5018766;28;89391;-57
2022/01/28 12:18:55;;;;;;;37.03;31.70;;;-5.20;94.90;-5.90;97229.00;;;;5017794;28;87294;-61
2022/01/28 12:21:37;;;;;;;41.90;34.50;;;-5.20;94.90;-5.90;97242.00;;;;5016396;28;87378;-59